Time;durP1;ratioP1;P1;durP2;ratioP2;P2;SDS_P1;SDS_P2;PMS_P1;PMS_P2;Temp;Humidity;BMP_temperature;BMP_pressure;BME280_temperature;BME280_humidity;BME280_pressure;Samples;Min_cycle;Max_cycle;Signal;HPM_P1;HPM_P2
2022/06/23 00:01:27;;;;;;;16.20;6.32;;;;;;;;;;10358684;28;20076;-74
2022/06/23 00:06:34;;;;;;;8.57;5.68;;;;;;;;;;10340701;28;20124;-74
2022/06/23 00:11:34;;;;;;;12.35;5.80;;;;;;;;;;10342495;28;20072;-73
2022/06/23 00:16:35;;;;;;;11.27;5.78;;;;;;;;;;10343210;28;20018;-73
2022/06/23 00:21:36;;;;;;;8.98;5.45;;;;;;;;;;10360435;28;20103;-70
2022/06/23 00:26:36;;;;;;;17.50;6.70;;;;;;;;;;10342873;28;20029;-73
2022/06/23 00:31:42;;;;;;;16.52;5.32;;;;;;;;;;10306515;28;20050;-74
2022/06/23 00:36:53;;;;;;;11.95;6.50;;;;;;;;;;10306673;28;20018;-73
2022/06/23 00:41:53;;;;;;;10.18;6.07;;;;;;;;;;10323477;28;20049;-70
2022/06/23 00:46:55;;;;;;;14.32;6.20;;;;;;;;;;10359429;28;20749;-75
2022/06/23 00:51:59;;;;;;;9.80;5.75;;;;;;;;;;10359906;28;20046;-70
2022/06/23 00:57:06;;;;;;;11.57;5.93;;;;;;;;;;10341465;28;20109;-70
2022/06/23 01:02:11;;;;;;;14.90;6.53;;;;;;;;;;10341771;28;20606;-73
2022/06/23 01:07:24;;;;;;;19.25;6.30;;;;;;;;;;10301705;28;20494;-74
2022/06/23 01:12:35;;;;;;;8.27;5.75;;;;;;;;;;10338144;28;20057;-72
2022/06/23 01:18:02;;;;;;;11.10;6.63;;;;;;;;;;10340790;28;20076;-69
2022/06/23 01:23:17;;;;;;;16.60;6.15;;;;;;;;;;10346893;28;20076;-70
2022/06/23 01:28:27;;;;;;;15.30;6.13;;;;;;;;;;10358203;28;20065;-73
2022/06/23 01:33:36;;;;;;;11.35;7.03;;;;;;;;;;10340561;28;20100;-75
2022/06/23 01:38:37;;;;;;;13.18;6.28;;;;;;;;;;10373913;28;20032;-70
2022/06/23 01:43:43;;;;;;;14.73;6.47;;;;;;;;;;10372862;28;20036;-75
2022/06/23 01:48:53;;;;;;;14.98;6.43;;;;;;;;;;10372873;28;20034;-69
2022/06/23 01:54:07;;;;;;;11.60;6.75;;;;;;;;;;10348410;28;20030;-73
2022/06/23 01:59:36;;;;;;;15.95;8.18;;;;;;;;;;10338355;28;20018;-68
2022/06/23 02:04:40;;;;;;;15.23;6.78;;;;;;;;;;10372590;28;20022;-69
2022/06/23 02:09:42;;;;;;;14.75;6.93;;;;;;;;;;10372288;28;20064;-72
2022/06/23 02:14:52;;;;;;;17.35;7.50;;;;;;;;;;10360044;28;20032;-69
2022/06/23 02:19:53;;;;;;;19.70;8.18;;;;;;;;;;10382251;28;20518;-68
2022/06/23 02:25:10;;;;;;;14.60;7.82;;;;;;;;;;10371237;28;20030;-73
2022/06/23 02:30:11;;;;;;;17.17;7.65;;;;;;;;;;10354257;28;20025;-70
2022/06/23 02:35:14;;;;;;;16.67;7.57;;;;;;;;;;10364604;28;20021;-70
2022/06/23 02:40:25;;;;;;;17.17;8.50;;;;;;;;;;10346163;28;20056;-72
2022/06/23 02:45:34;;;;;;;15.07;6.75;;;;;;;;;;10364699;28;20026;-71
2022/06/23 02:51:10;;;;;;;22.13;7.85;;;;;;;;;;10385283;28;20025;-72
2022/06/23 02:56:19;;;;;;;14.95;7.65;;;;;;;;;;10313424;28;20041;-74
2022/06/23 03:01:31;;;;;;;16.67;7.60;;;;;;;;;;10379103;28;20403;-72
2022/06/23 03:06:31;;;;;;;14.68;7.97;;;;;;;;;;10376672;28;20100;-74
2022/06/23 03:11:53;;;;;;;15.82;9.07;;;;;;;;;;10383510;28;20044;-68
2022/06/23 03:16:56;;;;;;;13.52;7.53;;;;;;;;;;10387195;28;20195;-71
2022/06/23 03:22:02;;;;;;;18.83;9.98;;;;;;;;;;10362076;28;20029;-74
2022/06/23 03:27:12;;;;;;;25.38;9.27;;;;;;;;;;10373181;28;20124;-70
2022/06/23 03:32:16;;;;;;;19.77;8.65;;;;;;;;;;10364744;28;20028;-68
2022/06/23 03:37:20;;;;;;;22.95;10.13;;;;;;;;;;10379274;28;20022;-71
2022/06/23 03:42:23;;;;;;;19.85;8.20;;;;;;;;;;10373081;28;20026;-69
2022/06/23 03:47:30;;;;;;;25.50;10.68;;;;;;;;;;10345541;28;20014;-74
2022/06/23 03:52:57;;;;;;;20.57;10.20;;;;;;;;;;10354487;28;20634;-71
2022/06/23 03:58:18;;;;;;;21.33;8.77;;;;;;;;;;10332134;28;20036;-72
2022/06/23 04:03:24;;;;;;;13.88;8.85;;;;;;;;;;10358863;28;20040;-69
2022/06/23 04:08:32;;;;;;;20.75;6.55;;;;;;;;;;10372829;28;20512;-72
2022/06/23 04:13:36;;;;;;;17.65;7.22;;;;;;;;;;10353522;28;20029;-75
2022/06/23 04:18:39;;;;;;;16.77;6.50;;;;;;;;;;10356344;28;20022;-76
2022/06/23 04:23:41;;;;;;;18.15;7.75;;;;;;;;;;10327125;28;20148;-73
2022/06/23 04:28:47;;;;;;;12.60;7.78;;;;;;;;;;10344363;28;20033;-75
2022/06/23 04:33:48;;;;;;;17.58;6.80;;;;;;;;;;10342797;28;20530;-70
2022/06/23 04:38:53;;;;;;;16.23;8.40;;;;;;;;;;10366607;28;20060;-72
2022/06/23 04:43:58;;;;;;;10.82;5.85;;;;;;;;;;10371687;28;20086;-70
2022/06/23 04:49:17;;;;;;;14.48;7.47;;;;;;;;;;10395016;28;20072;-73
2022/06/23 04:54:29;;;;;;;15.15;5.82;;;;;;;;;;10374148;28;20041;-76
2022/06/23 04:59:30;;;;;;;12.27;5.95;;;;;;;;;;10365569;28;20014;-70
2022/06/23 05:04:37;;;;;;;13.00;6.03;;;;;;;;;;10374393;28;20014;-76
2022/06/23 05:09:39;;;;;;;13.27;6.60;;;;;;;;;;10374290;28;20087;-73
2022/06/23 05:14:49;;;;;;;16.52;7.35;;;;;;;;;;10338427;28;20543;-74
2022/06/23 05:19:55;;;;;;;19.33;8.70;;;;;;;;;;10373267;28;20033;-69
2022/06/23 05:24:56;;;;;;;14.90;7.82;;;;;;;;;;10339737;28;20030;-71
2022/06/23 05:30:17;;;;;;;14.98;7.45;;;;;;;;;;10339661;28;20022;-75
2022/06/23 05:35:17;;;;;;;21.55;7.45;;;;;;;;;;10339555;28;20515;-75
2022/06/23 05:40:26;;;;;;;19.20;7.40;;;;;;;;;;10373281;28;20067;-74
2022/06/23 05:45:28;;;;;;;15.13;7.45;;;;;;;;;;10311969;28;20030;-74
2022/06/23 05:50:33;;;;;;;17.77;8.55;;;;;;;;;;10329071;28;20060;-75
2022/06/23 05:55:34;;;;;;;20.67;9.55;;;;;;;;;;10371089;28;20022;-74
2022/06/23 06:00:51;;;;;;;27.95;11.43;;;;;;;;;;10357514;28;20014;-75
2022/06/23 06:05:53;;;;;;;29.58;10.48;;;;;;;;;;10314964;28;20117;-73
2022/06/23 06:10:54;;;;;;;27.35;9.65;;;;;;;;;;10338192;28;20084;-74
2022/06/23 06:15:56;;;;;;;21.05;8.60;;;;;;;;;;10322785;28;20113;-73
2022/06/23 06:20:58;;;;;;;21.75;10.35;;;;;;;;;;10339407;28;20018;-76
2022/06/23 06:25:58;;;;;;;23.45;10.48;;;;;;;;;;10339029;28;20109;-74
2022/06/23 06:31:18;;;;;;;20.85;9.02;;;;;;;;;;10322487;28;20400;-75
2022/06/23 06:36:28;;;;;;;12.80;6.85;;;;;;;;;;10327578;28;20033;-70
2022/06/23 06:41:28;;;;;;;15.57;6.70;;;;;;;;;;10310012;28;20034;-69
2022/06/23 06:46:29;;;;;;;15.60;7.22;;;;;;;;;;10315347;28;20515;-70
2022/06/23 06:51:30;;;;;;;12.05;6.95;;;;;;;;;;10315339;28;20157;-70
2022/06/23 06:56:36;;;;;;;13.10;6.65;;;;;;;;;;10334642;28;20103;-70
2022/06/23 07:01:38;;;;;;;10.35;6.40;;;;;;;;;;10334923;28;20029;-73
2022/06/23 07:06:39;;;;;;;13.30;8.15;;;;;;;;;;10316513;28;20117;-74
2022/06/23 07:11:42;;;;;;;14.52;7.93;;;;;;;;;;10364443;28;20053;-74
2022/06/23 07:16:48;;;;;;;18.42;8.15;;;;;;;;;;10352512;28;20629;-69
2022/06/23 07:21:58;;;;;;;19.58;8.00;;;;;;;;;;10388546;28;20033;-71
2022/06/23 07:27:01;;;;;;;12.63;8.32;;;;;;;;;;10355111;28;20491;-71
2022/06/23 07:32:15;;;;;;;19.08;6.28;;;;;;;;;;10368215;28;20331;-71
2022/06/23 07:37:18;;;;;;;10.80;6.47;;;;;;;;;;10354329;28;20110;-67
2022/06/23 07:42:34;;;;;;;13.02;7.50;;;;;;;;;;10355443;28;20120;-72
2022/06/23 07:47:34;;;;;;;17.58;8.55;;;;;;;;;;10380983;28;20029;-72
2022/06/23 07:52:35;;;;;;;16.83;7.90;;;;;;;;;;10348442;28;20021;-76
2022/06/23 07:57:35;;;;;;;18.30;7.90;;;;;;;;;;10352537;28;20437;-73
2022/06/23 08:02:40;;;;;;;14.83;7.33;;;;;;;;;;10376246;28;20476;-73
2022/06/23 08:07:40;;;;;;;13.82;7.15;;;;;;;;;;10365995;28;20280;-67
2022/06/23 08:12:53;;;;;;;27.13;7.43;;;;;;;;;;10375456;28;20214;-72
2022/06/23 08:18:00;;;;;;;14.75;5.45;;;;;;;;;;10371897;28;20277;-68
2022/06/23 08:23:01;;;;;;;11.90;4.87;;;;;;;;;;10354746;28;20025;-69
2022/06/23 08:28:03;;;;;;;12.55;4.68;;;;;;;;;;10370231;28;20033;-71
2022/06/23 08:33:04;;;;;;;12.70;6.68;;;;;;;;;;10386087;28;20061;-75
2022/06/23 08:38:09;;;;;;;14.57;6.00;;;;;;;;;;10350990;28;20116;-77
2022/06/23 08:43:16;;;;;;;7.25;4.55;;;;;;;;;;10364908;28;20028;-67
2022/06/23 08:48:35;;;;;;;12.43;5.13;;;;;;;;;;10375484;28;20599;-72
2022/06/23 08:53:40;;;;;;;14.80;5.50;;;;;;;;;;10349231;28;20590;-72
2022/06/23 08:58:43;;;;;;;8.20;3.50;;;;;;;;;;10351168;28;20029;-71
2022/06/23 09:03:57;;;;;;;9.73;3.38;;;;;;;;;;10374150;28;20130;-75
2022/06/23 09:08:58;;;;;;;9.38;3.50;;;;;;;;;;10346661;28;20107;-72
2022/06/23 09:14:04;;;;;;;5.10;3.00;;;;;;;;;;10374804;28;20589;-72
2022/06/23 09:19:07;;;;;;;8.30;3.50;;;;;;;;;;10372107;28;20021;-70
2022/06/23 09:24:07;;;;;;;9.15;3.97;;;;;;;;;;10373805;28;20029;-73
2022/06/23 09:29:27;;;;;;;6.28;3.15;;;;;;;;;;10348179;28;20032;-70
2022/06/23 09:34:39;;;;;;;12.25;4.15;;;;;;;;;;10363551;28;20033;-75
2022/06/23 09:40:00;;;;;;;9.88;4.03;;;;;;;;;;10348451;28;20037;-71
2022/06/23 09:45:06;;;;;;;6.57;3.08;;;;;;;;;;10377528;28;20488;-74
2022/06/23 09:50:29;;;;;;;7.53;2.80;;;;;;;;;;10355467;28;20022;-72
2022/06/23 09:55:33;;;;;;;12.93;3.47;;;;;;;;;;10336796;28;20037;-72
2022/06/23 10:00:48;;;;;;;7.40;2.90;;;;;;;;;;10359267;28;20188;-72
2022/06/23 10:06:06;;;;;;;5.28;2.83;;;;;;;;;;10372727;28;20037;-75
2022/06/23 10:11:25;;;;;;;9.88;3.55;;;;;;;;;;10356400;28;20048;-74
2022/06/23 10:16:40;;;;;;;11.63;3.28;;;;;;;;;;10358074;28;20033;-73
2022/06/23 10:21:50;;;;;;;9.90;3.60;;;;;;;;;;10359079;28;20037;-70
2022/06/23 10:27:10;;;;;;;7.20;3.30;;;;;;;;;;10359837;28;20038;-74
2022/06/23 10:32:14;;;;;;;5.63;3.55;;;;;;;;;;10359178;28;20037;-71
2022/06/23 10:37:23;;;;;;;10.80;3.88;;;;;;;;;;10383867;28;20037;-68
2022/06/23 10:42:42;;;;;;;12.10;3.60;;;;;;;;;;10367938;28;20036;-73
2022/06/23 10:48:01;;;;;;;7.85;3.20;;;;;;;;;;10367236;28;20022;-70
2022/06/23 10:53:17;;;;;;;9.98;3.22;;;;;;;;;;10379586;28;20196;-71
2022/06/23 10:58:21;;;;;;;7.88;3.88;;;;;;;;;;10358536;28;20037;-70
2022/06/23 11:03:24;;;;;;;7.55;3.50;;;;;;;;;;10378501;28;20119;-68
2022/06/23 11:08:34;;;;;;;9.43;4.95;;;;;;;;;;10384071;28;20040;-68
2022/06/23 11:13:34;;;;;;;12.25;4.38;;;;;;;;;;10362164;28;20065;-74
2022/06/23 11:18:46;;;;;;;15.25;5.28;;;;;;;;;;10382586;28;20400;-72
2022/06/23 11:23:52;;;;;;;11.68;5.18;;;;;;;;;;10377067;28;20029;-69
2022/06/23 11:29:08;;;;;;;13.90;6.00;;;;;;;;;;10357904;28;20052;-70
2022/06/23 11:34:17;;;;;;;17.02;5.97;;;;;;;;;;10357081;28;20264;-73
2022/06/23 11:39:22;;;;;;;8.52;5.63;;;;;;;;;;10361990;28;20490;-74
2022/06/23 11:44:34;;;;;;;10.75;6.88;;;;;;;;;;10391333;28;20056;-71
2022/06/23 11:49:43;;;;;;;16.08;6.80;;;;;;;;;;10369563;28;20492;-70
2022/06/23 11:54:45;;;;;;;11.63;5.45;;;;;;;;;;10358851;28;20026;-69
2022/06/23 11:59:45;;;;;;;16.98;4.75;;;;;;;;;;10365216;28;20025;-74
2022/06/23 12:04:45;;;;;;;14.98;3.70;;;;;;;;;;10385820;28;20219;-76
2022/06/23 12:09:58;;;;;;;12.27;4.13;;;;;;;;;;10379672;28;20459;-74
2022/06/23 12:15:01;;;;;;;17.58;4.60;;;;;;;;;;10358601;28;20764;-74
2022/06/23 12:20:17;;;;;;;9.70;4.20;;;;;;;;;;10337014;28;20029;-77
2022/06/23 12:25:22;;;;;;;11.75;3.95;;;;;;;;;;10357486;28;20446;-75
2022/06/23 12:30:24;;;;;;;10.38;4.47;;;;;;;;;;10338796;28;20048;-74
2022/06/23 12:35:47;;;;;;;18.98;6.60;;;;;;;;;;10355354;28;20029;-71
2022/06/23 12:40:56;;;;;;;14.52;4.68;;;;;;;;;;10320012;28;20026;-70
2022/06/23 12:46:02;;;;;;;15.43;5.20;;;;;;;;;;10321430;28;20048;-75
2022/06/23 12:51:14;;;;;;;18.25;5.35;;;;;;;;;;10355749;28;20068;-70
2022/06/23 12:56:28;;;;;;;19.88;5.40;;;;;;;;;;10355357;28;20025;-71
2022/06/23 13:01:28;;;;;;;12.82;6.38;;;;;;;;;;10322038;28;20022;-75
2022/06/23 13:06:29;;;;;;;17.27;6.07;;;;;;;;;;10352812;28;20034;-75
2022/06/23 13:11:48;;;;;;;20.15;6.47;;;;;;;;;;10355111;28;20119;-74
2022/06/23 13:16:53;;;;;;;17.52;7.35;;;;;;;;;;10355099;28;20037;-70
2022/06/23 13:22:01;;;;;;;12.27;5.45;;;;;;;;;;10334366;28;20029;-74
2022/06/23 13:27:10;;;;;;;14.27;5.32;;;;;;;;;;10334254;28;20030;-74
2022/06/23 13:32:17;;;;;;;12.57;6.38;;;;;;;;;;10356621;28;20403;-75
2022/06/23 13:37:22;;;;;;;17.77;7.27;;;;;;;;;;10333797;28;20025;-74
2022/06/23 13:42:29;;;;;;;30.35;10.85;;;;;;;;;;10334643;28;20026;-74
2022/06/23 13:47:51;;;;;;;21.98;12.20;;;;;;;;;;10334545;28;20021;-71
2022/06/23 13:52:56;;;;;;;22.88;11.07;;;;;;;;;;10321372;28;20034;-73
2022/06/23 13:58:07;;;;;;;21.05;11.35;;;;;;;;;;10331789;28;20030;-75
2022/06/23 14:03:10;;;;;;;21.63;10.90;;;;;;;;;;10332612;28;21213;-76
2022/06/23 14:08:31;;;;;;;21.55;10.13;;;;;;;;;;10334941;28;20037;-76
2022/06/23 14:13:34;;;;;;;23.52;11.93;;;;;;;;;;10362851;28;20566;-73
2022/06/23 14:18:46;;;;;;;19.13;12.60;;;;;;;;;;10370842;28;20053;-78
2022/06/23 14:23:51;;;;;;;20.70;13.27;;;;;;;;;;10372650;28;20104;-72
2022/06/23 14:29:00;;;;;;;26.20;13.50;;;;;;;;;;10372296;28;20499;-72
2022/06/23 14:34:06;;;;;;;19.52;13.30;;;;;;;;;;10373148;28;20109;-70
2022/06/23 14:39:07;;;;;;;29.37;15.53;;;;;;;;;;10374598;28;20033;-76
2022/06/23 14:44:26;;;;;;;24.38;14.52;;;;;;;;;;10371343;28;20033;-77
2022/06/23 14:49:26;;;;;;;23.35;14.57;;;;;;;;;;10393706;28;20022;-73
2022/06/23 14:54:32;;;;;;;23.55;13.55;;;;;;;;;;10369639;28;20862;-71
2022/06/23 14:59:49;;;;;;;26.45;13.82;;;;;;;;;;10371052;28;20026;-69
2022/06/23 15:04:54;;;;;;;22.67;13.55;;;;;;;;;;10372621;28;20512;-75
2022/06/23 15:09:54;;;;;;;19.45;12.57;;;;;;;;;;10361002;28;20037;-75
2022/06/23 15:15:18;;;;;;;21.23;12.07;;;;;;;;;;10345821;28;20021;-77
2022/06/23 15:20:33;;;;;;;22.42;12.13;;;;;;;;;;10344117;28;20029;-71
2022/06/23 15:25:44;;;;;;;20.42;11.93;;;;;;;;;;10356946;28;20536;-72
2022/06/23 15:30:47;;;;;;;18.00;10.45;;;;;;;;;;10356883;28;20033;-70
2022/06/23 15:35:53;;;;;;;17.33;10.57;;;;;;;;;;10337101;28;20037;-74
2022/06/23 15:40:59;;;;;;;18.15;10.70;;;;;;;;;;10337995;28;20034;-75
2022/06/23 15:46:06;;;;;;;16.05;9.98;;;;;;;;;;10343203;28;20042;-74
2022/06/23 15:51:33;;;;;;;16.90;9.48;;;;;;;;;;10358137;28;20045;-71
2022/06/23 15:56:36;;;;;;;14.38;9.73;;;;;;;;;;10354451;28;20045;-80
2022/06/23 16:01:46;;;;;;;14.13;8.25;;;;;;;;;;10361853;28;20028;-72
2022/06/23 16:06:48;;;;;;;14.80;8.10;;;;;;;;;;10353448;28;20084;-77
2022/06/23 16:11:50;;;;;;;12.52;7.35;;;;;;;;;;10370979;28;20286;-72
2022/06/23 16:16:53;;;;;;;9.65;6.45;;;;;;;;;;10361701;28;20112;-71
2022/06/23 16:22:08;;;;;;;10.77;6.93;;;;;;;;;;10365970;28;20029;-75
2022/06/23 16:27:15;;;;;;;14.60;6.70;;;;;;;;;;10386946;28;20036;-74
2022/06/23 16:32:25;;;;;;;17.07;6.47;;;;;;;;;;10364225;28;20523;-71
2022/06/23 16:37:25;;;;;;;8.90;6.10;;;;;;;;;;10381806;28;20115;-71
2022/06/23 16:42:44;;;;;;;11.15;6.88;;;;;;;;;;10380525;28;20422;-71
2022/06/23 16:47:57;;;;;;;12.07;6.63;;;;;;;;;;10376869;28;20029;-73
2022/06/23 16:52:58;;;;;;;11.93;7.25;;;;;;;;;;10374360;28;20080;-75
2022/06/23 16:58:06;;;;;;;10.48;6.47;;;;;;;;;;10363415;28;20053;-74
2022/06/23 17:03:25;;;;;;;11.13;6.38;;;;;;;;;;10365983;28;20044;-74
2022/06/23 17:08:27;;;;;;;8.38;5.85;;;;;;;;;;10381645;28;20045;-75
2022/06/23 17:13:34;;;;;;;9.05;5.53;;;;;;;;;;10364119;28;20040;-74
2022/06/23 17:18:39;;;;;;;8.82;4.80;;;;;;;;;;10347413;28;20044;-73
2022/06/23 17:23:41;;;;;;;10.40;4.68;;;;;;;;;;10358027;28;20068;-69
2022/06/23 17:28:51;;;;;;;10.45;4.55;;;;;;;;;;10376842;28;20462;-74
2022/06/23 17:33:54;;;;;;;9.90;4.30;;;;;;;;;;10377832;28;20025;-70
2022/06/23 17:44:15;;;;;;;6.50;4.35;;;;;;;;;;10376777;28;20439;-75
2022/06/23 17:49:48;;;;;;;8.38;3.92;;;;;;;;;;10359950;28;20476;-70
2022/06/23 17:54:55;;;;;;;9.35;4.25;;;;;;;;;;10319048;28;20108;-70
2022/06/23 17:59:57;;;;;;;10.17;4.13;;;;;;;;;;10362124;28;20030;-74
2022/06/23 18:05:00;;;;;;;6.00;3.70;;;;;;;;;;10360679;28;20025;-68
2022/06/23 18:10:07;;;;;;;5.75;4.20;;;;;;;;;;10362426;28;20080;-71
2022/06/23 18:15:20;;;;;;;12.65;4.20;;;;;;;;;;10377217;28;20689;-73
2022/06/23 18:20:27;;;;;;;10.82;4.25;;;;;;;;;;10346599;28;20487;-75
2022/06/23 18:25:33;;;;;;;12.07;3.77;;;;;;;;;;10338972;28;20111;-73
2022/06/23 18:30:43;;;;;;;6.82;3.90;;;;;;;;;;10341157;28;20025;-74
2022/06/23 18:35:46;;;;;;;6.70;3.83;;;;;;;;;;10354232;28;20490;-70
2022/06/23 18:40:58;;;;;;;6.28;3.30;;;;;;;;;;10341237;28;20029;-73
2022/06/23 18:46:03;;;;;;;8.20;4.03;;;;;;;;;;10355622;28;20410;-69
2022/06/23 18:51:06;;;;;;;6.60;3.65;;;;;;;;;;10350067;28;20488;-71
2022/06/23 18:56:09;;;;;;;4.43;3.15;;;;;;;;;;10352466;28;20029;-73
2022/06/23 19:01:12;;;;;;;5.28;2.70;;;;;;;;;;10363653;28;20467;-71
2022/06/23 19:06:19;;;;;;;6.82;3.70;;;;;;;;;;10368842;28;20108;-70
2022/06/23 19:11:23;;;;;;;10.00;3.30;;;;;;;;;;10364217;28;20052;-73
2022/06/23 19:16:42;;;;;;;5.68;3.08;;;;;;;;;;10377983;28;20026;-76
2022/06/23 19:22:04;;;;;;;4.60;3.30;;;;;;;;;;10364556;28;20423;-75
2022/06/23 19:27:16;;;;;;;7.47;2.35;;;;;;;;;;10344963;28;20055;-77
2022/06/23 19:32:30;;;;;;;8.38;3.15;;;;;;;;;;10372100;28;20026;-74
2022/06/23 19:37:52;;;;;;;10.75;3.22;;;;;;;;;;10360285;28;20061;-70
2022/06/23 19:43:13;;;;;;;4.13;3.17;;;;;;;;;;10380078;28;20484;-72
2022/06/23 19:48:16;;;;;;;6.70;2.90;;;;;;;;;;10388502;28;20579;-76
2022/06/23 19:53:34;;;;;;;3.63;2.58;;;;;;;;;;10356887;28;20066;-70
2022/06/23 19:58:34;;;;;;;7.43;4.20;;;;;;;;;;10363593;28;20041;-76
2022/06/23 20:03:40;;;;;;;8.95;3.78;;;;;;;;;;10385380;28;20371;-75
2022/06/23 20:08:48;;;;;;;4.57;3.13;;;;;;;;;;10375492;28;20132;-75
2022/06/23 20:13:53;;;;;;;5.30;2.88;;;;;;;;;;10363385;28;20026;-74
2022/06/23 20:19:13;;;;;;;7.78;3.15;;;;;;;;;;10324018;28;20136;-72
2022/06/23 20:24:13;;;;;;;9.85;3.40;;;;;;;;;;10360274;28;20108;-69
2022/06/23 20:29:14;;;;;;;8.38;3.80;;;;;;;;;;10357432;28;20033;-75
2022/06/23 20:34:26;;;;;;;6.40;3.13;;;;;;;;;;10362781;28;20049;-73
2022/06/23 20:39:26;;;;;;;8.52;2.88;;;;;;;;;;10363009;28;20037;-73
2022/06/23 20:44:53;;;;;;;5.50;3.10;;;;;;;;;;10361985;28;20064;-75
2022/06/23 20:49:56;;;;;;;5.18;2.83;;;;;;;;;;10335946;28;20026;-75
2022/06/23 20:55:20;;;;;;;6.55;4.93;;;;;;;;;;10354666;28;20591;-70
2022/06/23 21:00:21;;;;;;;11.38;3.10;;;;;;;;;;10327898;28;20025;-75
2022/06/23 21:05:40;;;;;;;8.02;2.88;;;;;;;;;;10337133;28;20037;-73
2022/06/23 21:10:43;;;;;;;4.35;2.88;;;;;;;;;;10345442;28;20137;-74
2022/06/23 21:16:04;;;;;;;3.63;2.60;;;;;;;;;;10356610;28;20099;-74
2022/06/23 21:21:13;;;;;;;17.23;3.45;;;;;;;;;;10376817;28;20519;-76
2022/06/23 21:26:18;;;;;;;9.95;3.33;;;;;;;;;;10377765;28;20412;-75
2022/06/23 21:31:21;;;;;;;6.15;3.00;;;;;;;;;;10385257;28;20014;-72
2022/06/23 21:36:28;;;;;;;7.05;3.10;;;;;;;;;;10372491;28;20481;-76
2022/06/23 21:41:28;;;;;;;6.15;3.80;;;;;;;;;;10350359;28;20640;-71
2022/06/23 21:46:37;;;;;;;5.32;3.47;;;;;;;;;;10384117;28;20026;-74
2022/06/23 21:51:57;;;;;;;6.60;3.15;;;;;;;;;;10350711;28;20028;-77
2022/06/23 21:57:20;;;;;;;9.35;3.70;;;;;;;;;;10370601;28;20404;-74
2022/06/23 22:02:24;;;;;;;9.07;4.22;;;;;;;;;;10357132;28;20021;-75
2022/06/23 22:07:24;;;;;;;6.63;4.07;;;;;;;;;;10382722;28;21220;-73
2022/06/23 22:12:27;;;;;;;8.88;3.85;;;;;;;;;;10379615;28;20049;-74
2022/06/23 22:17:28;;;;;;;10.25;3.97;;;;;;;;;;10356429;28;20013;-74
2022/06/23 22:22:29;;;;;;;4.68;3.42;;;;;;;;;;10359926;28;20033;-73
2022/06/23 22:27:48;;;;;;;8.35;4.10;;;;;;;;;;10376003;28;20041;-68
2022/06/23 22:32:48;;;;;;;10.95;4.40;;;;;;;;;;10373765;28;20022;-74
2022/06/23 22:37:49;;;;;;;12.75;4.20;;;;;;;;;;10348882;28;20713;-74
2022/06/23 22:43:00;;;;;;;10.43;4.63;;;;;;;;;;10347593;28;20022;-69
2022/06/23 22:48:20;;;;;;;6.80;4.85;;;;;;;;;;10355035;28;20025;-70
2022/06/23 22:53:23;;;;;;;11.10;4.40;;;;;;;;;;10366404;28;20029;-73
2022/06/23 22:58:36;;;;;;;7.05;4.60;;;;;;;;;;10347214;28;20018;-76
2022/06/23 23:03:38;;;;;;;10.90;5.15;;;;;;;;;;10353151;28;20528;-73
2022/06/23 23:08:41;;;;;;;9.73;4.90;;;;;;;;;;10350925;28;20108;-73
2022/06/23 23:13:46;;;;;;;12.23;5.22;;;;;;;;;;10387363;28;20092;-75
2022/06/23 23:18:46;;;;;;;9.50;4.40;;;;;;;;;;10363773;28;20341;-75
2022/06/23 23:23:48;;;;;;;15.65;5.20;;;;;;;;;;10366169;28;20034;-76
2022/06/23 23:28:50;;;;;;;10.48;4.90;;;;;;;;;;10387102;28;20029;-74
2022/06/23 23:33:54;;;;;;;7.57;4.50;;;;;;;;;;10363272;28;20026;-70
2022/06/23 23:39:02;;;;;;;10.27;3.90;;;;;;;;;;10369696;28;20483;-74
2022/06/23 23:44:03;;;;;;;7.30;4.95;;;;;;;;;;10402710;28;20014;-76
2022/06/23 23:49:23;;;;;;;5.97;4.38;;;;;;;;;;10352267;28;20395;-75
2022/06/23 23:54:24;;;;;;;7.90;3.85;;;;;;;;;;10377645;28;20036;-68
2022/06/23 23:59:24;;;;;;;6.05;3.65;;;;;;;;;;10403568;28;20063;-70
